Weather at Cogullada

Public forecast

Using degrees Celsius for public forecast. Weather courtesy of forecast.io.

Closest aviation weather report (METAR) to Cogullada

Closest report is Zaragoza Air Base, 8.7 nm (16.0 km) W. Retrieved 2021/06/21 10:30 UTC (0 seconds ago):

LEZG 211030Z 23010KT 200V270 9999 SCT060 24/08 Q1010

Closest aviation forecast (TAF) to Cogullada

Closest forecast is Zaragoza Air Base, 8.7 nm (16.0 km) W. Retrieved 2021/06/21 06:27 UTC (4 hours ago):

TAF LEZG 210500Z 2106/2206 24012KT 9999 SCT080 TX31/2115Z TN16/2106Z TEMPO 2106/2107 VRB03KT BECMG 2122/2124 30010KT